sensor_id;sensor_type;location;lat;lon;timestamp;pressure;altitude;pressure_sealevel;temperature;humidity
9893;BME280;4985;49.092;8.542;2023-12-28T00:01:37;99383.88;;;15.83;50.17
9893;BME280;4985;49.092;8.542;2023-12-28T00:04:03;99381.41;;;15.81;50.53
9893;BME280;4985;49.092;8.542;2023-12-28T00:06:28;99389.38;;;15.81;50.18
9893;BME280;4985;49.092;8.542;2023-12-28T00:08:53;99384.25;;;15.80;50.16
9893;BME280;4985;49.092;8.542;2023-12-28T00:11:19;99387.75;;;15.80;50.32
9893;BME280;4985;49.092;8.542;2023-12-28T00:13:45;99378.94;;;15.80;50.56
9893;BME280;4985;49.092;8.542;2023-12-28T00:16:11;99394.06;;;15.79;50.45
9893;BME280;4985;49.092;8.542;2023-12-28T00:18:36;99394.06;;;15.79;50.19
9893;BME280;4985;49.092;8.542;2023-12-28T00:21:01;99388.75;;;15.79;50.45
9893;BME280;4985;49.092;8.542;2023-12-28T00:23:26;99379.97;;;15.79;50.43
9893;BME280;4985;49.092;8.542;2023-12-28T00:25:52;99381.81;;;15.78;50.37
9893;BME280;4985;49.092;8.542;2023-12-28T00:28:17;99385.28;;;15.79;50.12
9893;BME280;4985;49.092;8.542;2023-12-28T00:30:43;99389.97;;;15.77;50.52
9893;BME280;4985;49.092;8.542;2023-12-28T00:33:08;99396.09;;;15.77;50.42
9893;BME280;4985;49.092;8.542;2023-12-28T00:35:34;99385.47;;;15.77;50.45
9893;BME280;4985;49.092;8.542;2023-12-28T00:37:59;99405.91;;;15.77;50.20
9893;BME280;4985;49.092;8.542;2023-12-28T00:40:24;99404.25;;;15.76;50.46
9893;BME280;4985;49.092;8.542;2023-12-28T00:42:50;99404.25;;;15.76;50.29
9893;BME280;4985;49.092;8.542;2023-12-28T00:45:15;99407.72;;;15.76;50.64
9893;BME280;4985;49.092;8.542;2023-12-28T00:47:40;99401.59;;;15.76;50.29
9893;BME280;4985;49.092;8.542;2023-12-28T00:50:08;99390.34;;;15.73;50.21
9893;BME280;4985;49.092;8.542;2023-12-28T00:52:34;99398.94;;;15.76;50.69
9893;BME280;4985;49.092;8.542;2023-12-28T00:55:00;99392.00;;;15.75;50.24
9893;BME280;4985;49.092;8.542;2023-12-28T00:57:25;99402.63;;;15.75;50.47
9893;BME280;4985;49.092;8.542;2023-12-28T00:59:50;99406.25;;;15.73;50.48
9893;BME280;4985;49.092;8.542;2023-12-28T01:02:15;99398.28;;;15.73;50.22
9893;BME280;4985;49.092;8.542;2023-12-28T01:04:41;99410.59;;;15.75;50.41
9893;BME280;4985;49.092;8.542;2023-12-28T01:07:06;99394.81;;;15.73;50.28
9893;BME280;4985;49.092;8.542;2023-12-28T01:09:31;99400.31;;;15.71;50.31
9893;BME280;4985;49.092;8.542;2023-12-28T01:12:00;99400.31;;;15.71;50.30
9893;BME280;4985;49.092;8.542;2023-12-28T01:14:25;99397.66;;;15.71;50.28
9893;BME280;4985;49.092;8.542;2023-12-28T01:16:50;99394.19;;;15.71;50.14
9893;BME280;4985;49.092;8.542;2023-12-28T01:19:16;99400.31;;;15.71;50.28
9893;BME280;4985;49.092;8.542;2023-12-28T01:21:41;99400.31;;;15.71;50.47
9893;BME280;4985;49.092;8.542;2023-12-28T01:24:07;99401.34;;;15.70;50.49
9893;BME280;4985;49.092;8.542;2023-12-28T01:26:32;99411.13;;;15.70;50.22
9893;BME280;4985;49.092;8.542;2023-12-28T01:28:57;99405.84;;;15.70;50.49
9893;BME280;4985;49.092;8.542;2023-12-28T01:31:23;99410.31;;;15.69;50.61
9893;BME280;4985;49.092;8.542;2023-12-28T01:33:48;99410.31;;;15.69;50.66
9893;BME280;4985;49.092;8.542;2023-12-28T01:36:18;99408.69;;;15.68;50.45
9893;BME280;4985;49.092;8.542;2023-12-28T01:38:43;99406.03;;;15.68;50.49
9893;BME280;4985;49.092;8.542;2023-12-28T01:41:09;99409.50;;;15.69;50.53
9893;BME280;4985;49.092;8.542;2023-12-28T01:43:34;99413.19;;;15.68;50.33
9893;BME280;4985;49.092;8.542;2023-12-28T01:46:00;99421.13;;;15.68;50.17
9893;BME280;4985;49.092;8.542;2023-12-28T01:48:25;99421.94;;;15.68;50.28
9893;BME280;4985;49.092;8.542;2023-12-28T01:50:51;99430.94;;;15.67;50.36
9893;BME280;4985;49.092;8.542;2023-12-28T01:53:17;99430.94;;;15.67;50.49
9893;BME280;4985;49.092;8.542;2023-12-28T01:55:43;99432.75;;;15.67;50.19
9893;BME280;4985;49.092;8.542;2023-12-28T01:58:09;99437.25;;;15.66;50.27
9893;BME280;4985;49.092;8.542;2023-12-28T02:00:34;99431.13;;;15.66;50.25
9893;BME280;4985;49.092;8.542;2023-12-28T02:03:03;99430.31;;;15.65;50.54
9893;BME280;4985;49.092;8.542;2023-12-28T02:05:29;99447.88;;;15.66;50.29
9893;BME280;4985;49.092;8.542;2023-12-28T02:07:55;99443.56;;;15.65;50.24
9893;BME280;4985;49.092;8.542;2023-12-28T02:10:20;99449.91;;;15.64;50.39
9893;BME280;4985;49.092;8.542;2023-12-28T02:12:45;99446.22;;;15.65;50.65
9893;BME280;4985;49.092;8.542;2023-12-28T02:15:12;99449.06;;;15.64;50.53
9893;BME280;4985;49.092;8.542;2023-12-28T02:18:01;99450.72;;;15.65;50.58
9893;BME280;4985;49.092;8.542;2023-12-28T02:20:29;99435.00;;;15.63;50.24
9893;BME280;4985;49.092;8.542;2023-12-28T02:22:56;99438.63;;;15.62;50.41
9893;BME280;4985;49.092;8.542;2023-12-28T02:25:22;99430.03;;;15.60;50.48
9893;BME280;4985;49.092;8.542;2023-12-28T02:27:48;99423.06;;;15.59;50.32
9893;BME280;4985;49.092;8.542;2023-12-28T02:30:18;99430.22;;;15.59;50.45
9893;BME280;4985;49.092;8.542;2023-12-28T02:33:24;99433.06;;;15.57;50.29
9893;BME280;4985;49.092;8.542;2023-12-28T02:38:20;99429.78;;;15.55;50.58
9893;BME280;4985;49.092;8.542;2023-12-28T02:40:47;99436.72;;;15.56;50.61
9893;BME280;4985;49.092;8.542;2023-12-28T02:43:12;99428.78;;;15.56;50.25
9893;BME280;4985;49.092;8.542;2023-12-28T02:45:38;99439.19;;;15.58;50.73
9893;BME280;4985;49.092;8.542;2023-12-28T02:48:05;99427.75;;;15.57;50.61
9893;BME280;4985;49.092;8.542;2023-12-28T02:50:31;99428.56;;;15.58;50.27
9893;BME280;4985;49.092;8.542;2023-12-28T02:52:56;99432.25;;;15.57;50.19
9893;BME280;4985;49.092;8.542;2023-12-28T02:55:22;99432.25;;;15.57;50.36
9893;BME280;4985;49.092;8.542;2023-12-28T02:57:50;99424.47;;;15.55;50.06
9893;BME280;4985;49.092;8.542;2023-12-28T03:00:16;99432.44;;;15.55;50.15
9893;BME280;4985;49.092;8.542;2023-12-28T03:02:41;99438.56;;;15.56;50.02
9893;BME280;4985;49.092;8.542;2023-12-28T03:05:07;99434.47;;;15.53;50.00
9893;BME280;4985;49.092;8.542;2023-12-28T03:07:33;99436.09;;;15.54;50.17
9893;BME280;4985;49.092;8.542;2023-12-28T03:09:59;99440.78;;;15.52;50.00
9893;BME280;4985;49.092;8.542;2023-12-28T03:12:24;99438.13;;;15.52;49.97
9893;BME280;4985;49.092;8.542;2023-12-28T03:14:49;99434.66;;;15.52;49.89
9893;BME280;4985;49.092;8.542;2023-12-28T03:17:15;99437.31;;;15.52;49.70
9893;BME280;4985;49.092;8.542;2023-12-28T03:19:40;99432.16;;;15.50;49.52
9893;BME280;4985;49.092;8.542;2023-12-28T03:22:06;99433.19;;;15.49;49.74
9893;BME280;4985;49.092;8.542;2023-12-28T03:24:31;99428.91;;;15.48;49.79
9893;BME280;4985;49.092;8.542;2023-12-28T03:26:56;99423.59;;;15.48;50.04
9893;BME280;4985;49.092;8.542;2023-12-28T03:29:22;99428.91;;;15.48;49.65
9893;BME280;4985;49.092;8.542;2023-12-28T03:31:47;99434.19;;;15.48;49.70
9893;BME280;4985;49.092;8.542;2023-12-28T03:34:13;99425.41;;;15.48;49.82
9893;BME280;4985;49.092;8.542;2023-12-28T03:36:38;99409.69;;;15.46;49.75
9893;BME280;4985;49.092;8.542;2023-12-28T03:39:04;99415.00;;;15.46;49.82
9893;BME280;4985;49.092;8.542;2023-12-28T03:41:30;99407.06;;;15.46;49.76
9893;BME280;4985;49.092;8.542;2023-12-28T03:43:55;99407.88;;;15.47;49.60
9893;BME280;4985;49.092;8.542;2023-12-28T03:46:20;99412.34;;;15.46;49.92
9893;BME280;4985;49.092;8.542;2023-12-28T03:48:46;99408.06;;;15.45;49.89
9893;BME280;4985;49.092;8.542;2023-12-28T03:51:15;99408.06;;;15.45;49.61
9893;BME280;4985;49.092;8.542;2023-12-28T03:53:41;99401.94;;;15.44;49.82
9893;BME280;4985;49.092;8.542;2023-12-28T03:56:07;99398.66;;;15.42;49.76
9893;BME280;4985;49.092;8.542;2023-12-28T03:58:32;99411.09;;;15.42;49.82
9893;BME280;4985;49.092;8.542;2023-12-28T04:00:57;99413.75;;;15.42;49.81
9893;BME280;4985;49.092;8.542;2023-12-28T04:03:23;99413.97;;;15.40;49.71
9893;BME280;4985;49.092;8.542;2023-12-28T04:05:48;99414.78;;;15.41;50.02
9893;BME280;4985;49.092;8.542;2023-12-28T04:08:13;99418.41;;;15.40;50.00
9893;BME280;4985;49.092;8.542;2023-12-28T04:10:39;99422.91;;;15.39;49.95
9893;BME280;4985;49.092;8.542;2023-12-28T04:13:04;99423.91;;;15.38;49.98
9893;BME280;4985;49.092;8.542;2023-12-28T04:15:30;99428.41;;;15.38;50.05
9893;BME280;4985;49.092;8.542;2023-12-28T04:17:56;99423.09;;;15.38;49.95
9893;BME280;4985;49.092;8.542;2023-12-28T04:20:21;99417.97;;;15.36;50.10
9893;BME280;4985;49.092;8.542;2023-12-28T04:22:47;99413.50;;;15.37;50.02
9893;BME280;4985;49.092;8.542;2023-12-28T04:25:12;99423.28;;;15.36;50.15
9893;BME280;4985;49.092;8.542;2023-12-28T04:27:38;99421.84;;;15.34;50.33
9893;BME280;4985;49.092;8.542;2023-12-28T04:30:05;99431.81;;;15.32;50.52
9893;BME280;4985;49.092;8.542;2023-12-28T04:32:31;99416.09;;;15.30;50.46
9893;BME280;4985;49.092;8.542;2023-12-28T04:34:57;99408.16;;;15.30;50.51
9893;BME280;4985;49.092;8.542;2023-12-28T04:37:22;99411.81;;;15.29;50.50
9893;BME280;4985;49.092;8.542;2023-12-28T04:39:47;99418.09;;;15.28;50.48
9893;BME280;4985;49.092;8.542;2023-12-28T04:42:13;99429.53;;;15.29;50.54
9893;BME280;4985;49.092;8.542;2023-12-28T04:44:38;99431.56;;;15.27;50.78
9893;BME280;4985;49.092;8.542;2023-12-28T04:47:04;99441.34;;;15.26;50.87
9893;BME280;4985;49.092;8.542;2023-12-28T04:49:30;99450.13;;;15.27;50.86
9893;BME280;4985;49.092;8.542;2023-12-28T04:51:55;99463.38;;;15.27;50.57
9893;BME280;4985;49.092;8.542;2023-12-28T04:54:21;99462.56;;;15.26;50.95
9893;BME280;4985;49.092;8.542;2023-12-28T04:56:46;99459.09;;;15.26;50.68
9893;BME280;4985;49.092;8.542;2023-12-28T04:59:12;99457.25;;;15.26;50.54
9893;BME280;4985;49.092;8.542;2023-12-28T05:01:44;99455.63;;;15.25;50.99
9893;BME280;4985;49.092;8.542;2023-12-28T05:04:10;99453.16;;;15.24;50.63
9893;BME280;4985;49.092;8.542;2023-12-28T05:06:35;99452.53;;;15.22;50.91
9893;BME280;4985;49.092;8.542;2023-12-28T05:09:01;99456.19;;;15.21;50.88
9893;BME280;4985;49.092;8.542;2023-12-28T05:11:26;99456.19;;;15.21;50.64
9893;BME280;4985;49.092;8.542;2023-12-28T05:13:52;99457.22;;;15.20;50.76
9893;BME280;4985;49.092;8.542;2023-12-28T05:16:17;99438.84;;;15.18;50.50
9893;BME280;4985;49.092;8.542;2023-12-28T05:18:43;99441.50;;;15.18;50.87
9893;BME280;4985;49.092;8.542;2023-12-28T05:21:08;99455.56;;;15.19;50.69
9893;BME280;4985;49.092;8.542;2023-12-28T05:23:33;99460.06;;;15.18;50.72
9893;BME280;4985;49.092;8.542;2023-12-28T05:25:59;99455.56;;;15.19;50.61
9893;BME280;4985;49.092;8.542;2023-12-28T05:28:24;99443.31;;;15.18;50.66
9893;BME280;4985;49.092;8.542;2023-12-28T05:30:49;99444.16;;;15.18;50.47
9893;BME280;4985;49.092;8.542;2023-12-28T05:33:15;99451.28;;;15.18;50.76
9893;BME280;4985;49.092;8.542;2023-12-28T05:35:40;99451.09;;;15.19;50.68
9893;BME280;4985;49.092;8.542;2023-12-28T05:38:05;99455.19;;;15.22;50.89
9893;BME280;4985;49.092;8.542;2023-12-28T05:40:31;99459.66;;;15.21;51.09
9893;BME280;4985;49.092;8.542;2023-12-28T05:42:56;99470.09;;;15.23;51.18
9893;BME280;4985;49.092;8.542;2023-12-28T05:45:21;99476.22;;;15.23;50.75
9893;BME280;4985;49.092;8.542;2023-12-28T05:47:47;99477.03;;;15.24;51.05
9893;BME280;4985;49.092;8.542;2023-12-28T05:50:13;99485.63;;;15.26;50.87
9893;BME280;4985;49.092;8.542;2023-12-28T05:52:38;99495.22;;;15.27;50.91
9893;BME280;4985;49.092;8.542;2023-12-28T05:55:04;99486.22;;;15.28;50.87
9893;BME280;4985;49.092;8.542;2023-12-28T05:57:30;99486.22;;;15.28;51.05
9893;BME280;4985;49.092;8.542;2023-12-28T05:59:57;99487.88;;;15.29;51.16
9893;BME280;4985;49.092;8.542;2023-12-28T06:02:22;99505.47;;;15.30;51.06
9893;BME280;4985;49.092;8.542;2023-12-28T06:04:48;99516.06;;;15.30;50.80
9893;BME280;4985;49.092;8.542;2023-12-28T06:07:13;99517.72;;;15.31;51.19
9893;BME280;4985;49.092;8.542;2023-12-28T06:09:38;99518.53;;;15.31;50.86
9893;BME280;4985;49.092;8.542;2023-12-28T06:12:07;99514.03;;;15.32;51.19
9893;BME280;4985;49.092;8.542;2023-12-28T06:14:32;99513.03;;;15.33;50.71
9893;BME280;4985;49.092;8.542;2023-12-28T06:16:58;99522.81;;;15.32;50.77
9893;BME280;4985;49.092;8.542;2023-12-28T06:19:23;99529.78;;;15.33;50.99
9893;BME280;4985;49.092;8.542;2023-12-28T06:21:49;99535.25;;;15.32;50.73
9893;BME280;4985;49.092;8.542;2023-12-28T06:24:14;99535.25;;;15.32;50.48
9893;BME280;4985;49.092;8.542;2023-12-28T06:26:43;99531.59;;;15.33;50.44
9893;BME280;4985;49.092;8.542;2023-12-28T06:29:09;99522.81;;;15.32;50.82
9893;BME280;4985;49.092;8.542;2023-12-28T06:31:37;99515.69;;;15.33;50.34
9893;BME280;4985;49.092;8.542;2023-12-28T06:34:03;99526.28;;;15.33;50.48
9893;BME280;4985;49.092;8.542;2023-12-28T06:36:29;99543.84;;;15.34;50.39
9893;BME280;4985;49.092;8.542;2023-12-28T06:38:55;99553.84;;;15.32;50.21
9893;BME280;4985;49.092;8.542;2023-12-28T06:41:20;99554.47;;;15.34;50.37
9893;BME280;4985;49.092;8.542;2023-12-28T06:43:46;99566.72;;;15.35;50.19
9893;BME280;4985;49.092;8.542;2023-12-28T06:46:11;99577.31;;;15.35;50.22
9893;BME280;4985;49.092;8.542;2023-12-28T06:48:36;99567.72;;;15.34;50.10
9893;BME280;4985;49.092;8.542;2023-12-28T06:51:05;99577.50;;;15.33;49.66
9893;BME280;4985;49.092;8.542;2023-12-28T06:53:30;99574.03;;;15.33;49.52
9893;BME280;4985;49.092;8.542;2023-12-28T06:55:55;99551.00;;;15.33;49.88
9893;BME280;4985;49.092;8.542;2023-12-28T06:58:21;99564.06;;;15.35;49.82
9893;BME280;4985;49.092;8.542;2023-12-28T07:00:46;99564.06;;;15.35;49.63
9893;BME280;4985;49.092;8.542;2023-12-28T07:03:12;99571.00;;;15.36;49.78
9893;BME280;4985;49.092;8.542;2023-12-28T07:05:37;99581.63;;;15.36;49.87
9893;BME280;4985;49.092;8.542;2023-12-28T07:08:02;99571.00;;;15.36;49.63
9893;BME280;4985;49.092;8.542;2023-12-28T07:10:28;99584.06;;;15.37;49.81
9893;BME280;4985;49.092;8.542;2023-12-28T07:12:53;99583.25;;;15.37;49.83
9893;BME280;4985;49.092;8.542;2023-12-28T07:15:18;99579.59;;;15.38;50.01
9893;BME280;4985;49.092;8.542;2023-12-28T07:17:44;99580.41;;;15.38;49.78
9893;BME280;4985;49.092;8.542;2023-12-28T07:20:09;99575.94;;;15.39;50.30
9893;BME280;4985;49.092;8.542;2023-12-28T07:22:36;99575.09;;;15.38;49.86
9893;BME280;4985;49.092;8.542;2023-12-28T07:25:01;99575.94;;;15.39;50.01
9893;BME280;4985;49.092;8.542;2023-12-28T07:27:27;99576.94;;;15.38;50.17
9893;BME280;4985;49.092;8.542;2023-12-28T07:29:52;99587.56;;;15.38;49.99
9893;BME280;4985;49.092;8.542;2023-12-28T07:32:17;99597.16;;;15.39;50.07
9893;BME280;4985;49.092;8.542;2023-12-28T07:34:45;99595.31;;;15.39;50.34
9893;BME280;4985;49.092;8.542;2023-12-28T07:37:10;99590.00;;;15.39;50.00
9893;BME280;4985;49.092;8.542;2023-12-28T07:39:35;99590.84;;;15.40;50.34
9893;BME280;4985;49.092;8.542;2023-12-28T07:42:01;99600.63;;;15.39;50.18
9893;BME280;4985;49.092;8.542;2023-12-28T07:44:26;99592.66;;;15.39;50.52
9893;BME280;4985;49.092;8.542;2023-12-28T07:46:52;99604.09;;;15.40;50.20
9893;BME280;4985;49.092;8.542;2023-12-28T07:49:17;99622.66;;;15.40;50.41
9893;BME280;4985;49.092;8.542;2023-12-28T07:51:43;99617.38;;;15.40;50.44
9893;BME280;4985;49.092;8.542;2023-12-28T07:54:08;99614.72;;;15.40;50.37
9893;BME280;4985;49.092;8.542;2023-12-28T07:56:33;99604.09;;;15.40;50.57
9893;BME280;4985;49.092;8.542;2023-12-28T07:58:58;99615.72;;;15.39;50.60
9893;BME280;4985;49.092;8.542;2023-12-28T08:01:24;99617.38;;;15.40;50.27
9893;BME280;4985;49.092;8.542;2023-12-28T08:03:50;99615.72;;;15.39;50.51
9893;BME280;4985;49.092;8.542;2023-12-28T08:06:15;99618.38;;;15.39;50.39
9893;BME280;4985;49.092;8.542;2023-12-28T08:08:41;99615.91;;;15.37;50.53
9893;BME280;4985;49.092;8.542;2023-12-28T08:11:06;99607.94;;;15.37;50.18
9893;BME280;4985;49.092;8.542;2023-12-28T08:13:32;99598.97;;;15.38;50.17
9893;BME280;4985;49.092;8.542;2023-12-28T08:15:57;99605.31;;;15.37;50.28
9893;BME280;4985;49.092;8.542;2023-12-28T08:18:22;99592.03;;;15.37;50.14
9893;BME280;4985;49.092;8.542;2023-12-28T08:20:48;99601.81;;;15.37;50.17
9893;BME280;4985;49.092;8.542;2023-12-28T08:23:14;99598.16;;;15.38;50.44
9893;BME280;4985;49.092;8.542;2023-12-28T08:25:40;99596.53;;;15.37;50.47
9893;BME280;4985;49.092;8.542;2023-12-28T08:28:05;99606.31;;;15.36;50.08
9893;BME280;4985;49.092;8.542;2023-12-28T08:30:31;99602.84;;;15.36;50.10
9893;BME280;4985;49.092;8.542;2023-12-28T08:32:56;99603.03;;;15.34;50.21
9893;BME280;4985;49.092;8.542;2023-12-28T08:35:21;99598.53;;;15.35;50.08
9893;BME280;4985;49.092;8.542;2023-12-28T08:37:47;99603.84;;;15.35;50.21
9893;BME280;4985;49.092;8.542;2023-12-28T08:40:13;99601.00;;;15.36;50.47
9893;BME280;4985;49.092;8.542;2023-12-28T08:42:38;99587.38;;;15.39;50.25
9893;BME280;4985;49.092;8.542;2023-12-28T08:45:04;99574.91;;;15.40;50.36
9893;BME280;4985;49.092;8.542;2023-12-28T08:47:29;99578.22;;;15.42;50.18
9893;BME280;4985;49.092;8.542;2023-12-28T08:49:55;99582.53;;;15.43;50.19
9893;BME280;4985;49.092;8.542;2023-12-28T08:52:20;99579.06;;;15.42;50.18
9893;BME280;4985;49.092;8.542;2023-12-28T08:54:45;99574.56;;;15.43;50.21
9893;BME280;4985;49.092;8.542;2023-12-28T08:57:11;99579.88;;;15.43;50.37
9893;BME280;4985;49.092;8.542;2023-12-28T08:59:36;99581.72;;;15.42;50.23
9893;BME280;4985;49.092;8.542;2023-12-28T09:02:02;99579.06;;;15.42;50.19
9893;BME280;4985;49.092;8.542;2023-12-28T09:04:27;99579.88;;;15.43;50.03
9893;BME280;4985;49.092;8.542;2023-12-28T09:06:53;99579.06;;;15.42;50.15
9893;BME280;4985;49.092;8.542;2023-12-28T09:09:18;99590.47;;;15.43;50.16
9893;BME280;4985;49.092;8.542;2023-12-28T09:11:44;99606.41;;;15.43;50.15
9893;BME280;4985;49.092;8.542;2023-12-28T09:14:09;99612.34;;;15.45;50.38
9893;BME280;4985;49.092;8.542;2023-12-28T09:16:34;99615.00;;;15.45;50.24
9893;BME280;4985;49.092;8.542;2023-12-28T09:19:00;99627.25;;;15.46;50.20
9893;BME280;4985;49.092;8.542;2023-12-28T09:21:26;99637.03;;;15.46;50.38
9893;BME280;4985;49.092;8.542;2023-12-28T09:23:52;99637.84;;;15.46;50.47
9893;BME280;4985;49.092;8.542;2023-12-28T09:26:17;99628.25;;;15.45;50.13
9893;BME280;4985;49.092;8.542;2023-12-28T09:28:43;99641.53;;;15.45;50.10
9893;BME280;4985;49.092;8.542;2023-12-28T09:31:08;99653.78;;;15.46;50.15
9893;BME280;4985;49.092;8.542;2023-12-28T09:33:34;99657.44;;;15.45;50.09
9893;BME280;4985;49.092;8.542;2023-12-28T09:35:59;99651.31;;;15.44;50.39
9893;BME280;4985;49.092;8.542;2023-12-28T09:38:25;99654.16;;;15.43;50.42
9893;BME280;4985;49.092;8.542;2023-12-28T09:40:53;99662.13;;;15.43;50.05
9893;BME280;4985;49.092;8.542;2023-12-28T09:43:23;99655.16;;;15.42;50.15
9893;BME280;4985;49.092;8.542;2023-12-28T09:45:50;99649.84;;;15.42;50.29
9893;BME280;4985;49.092;8.542;2023-12-28T09:48:16;99649.19;;;15.40;50.15
9893;BME280;4985;49.092;8.542;2023-12-28T09:50:43;99652.69;;;15.40;50.27
9893;BME280;4985;49.092;8.542;2023-12-28T09:53:09;99641.25;;;15.40;50.35
9893;BME280;4985;49.092;8.542;2023-12-28T09:55:34;99649.19;;;15.40;50.38
9893;BME280;4985;49.092;8.542;2023-12-28T09:58:00;99638.97;;;15.37;50.62
9893;BME280;4985;49.092;8.542;2023-12-28T10:00:25;99631.63;;;15.39;50.68
9893;BME280;4985;49.092;8.542;2023-12-28T10:02:50;99627.16;;;15.39;50.58
9893;BME280;4985;49.092;8.542;2023-12-28T10:05:16;99631.63;;;15.39;50.82
9893;BME280;4985;49.092;8.542;2023-12-28T10:07:43;99621.03;;;15.39;50.53
9893;BME280;4985;49.092;8.542;2023-12-28T10:10:09;99618.38;;;15.39;50.59
9893;BME280;4985;49.092;8.542;2023-12-28T10:12:35;99621.03;;;15.39;50.81
9893;BME280;4985;49.092;8.542;2023-12-28T10:15:01;99618.22;;;15.40;50.69
9893;BME280;4985;49.092;8.542;2023-12-28T10:17:26;99613.72;;;15.41;50.89
9893;BME280;4985;49.092;8.542;2023-12-28T10:19:52;99604.09;;;15.40;50.81
9893;BME280;4985;49.092;8.542;2023-12-28T10:22:18;99596.13;;;15.40;50.95
9893;BME280;4985;49.092;8.542;2023-12-28T10:24:45;99593.47;;;15.40;50.87
9893;BME280;4985;49.092;8.542;2023-12-28T10:27:13;99602.28;;;15.40;50.96
9893;BME280;4985;49.092;8.542;2023-12-28T10:29:38;99597.81;;;15.41;51.00
9893;BME280;4985;49.092;8.542;2023-12-28T10:32:04;99602.94;;;15.42;50.88
9893;BME280;4985;49.092;8.542;2023-12-28T10:34:29;99604.75;;;15.42;51.02
9893;BME280;4985;49.092;8.542;2023-12-28T10:36:56;99604.75;;;15.42;51.01
9893;BME280;4985;49.092;8.542;2023-12-28T10:39:24;99593.31;;;15.41;50.76
9893;BME280;4985;49.092;8.542;2023-12-28T10:41:51;99600.28;;;15.42;50.77
9893;BME280;4985;49.092;8.542;2023-12-28T10:44:20;99602.75;;;15.44;50.91
9893;BME280;4985;49.092;8.542;2023-12-28T10:46:47;99597.44;;;15.44;51.18
9893;BME280;4985;49.092;8.542;2023-12-28T10:49:16;99605.38;;;15.44;50.73
9893;BME280;4985;49.092;8.542;2023-12-28T10:51:43;99597.44;;;15.44;50.91
9893;BME280;4985;49.092;8.542;2023-12-28T11:01:59;99578.84;;;15.44;51.26
9893;BME280;4985;49.092;8.542;2023-12-28T11:04:49;99584.16;;;15.44;50.96
9893;BME280;4985;49.092;8.542;2023-12-28T11:07:17;99590.69;;;15.41;51.09
9893;BME280;4985;49.092;8.542;2023-12-28T11:09:43;99588.19;;;15.40;51.27
9893;BME280;4985;49.092;8.542;2023-12-28T11:12:09;99586.38;;;15.40;51.55
9893;BME280;4985;49.092;8.542;2023-12-28T11:14:41;99590.84;;;15.40;51.44
9893;BME280;4985;49.092;8.542;2023-12-28T11:17:09;99588.38;;;15.38;51.72
9893;BME280;4985;49.092;8.542;2023-12-28T11:19:35;99595.31;;;15.39;51.42
9893;BME280;4985;49.092;8.542;2023-12-28T11:22:03;99597.97;;;15.39;51.42
9893;BME280;4985;49.092;8.542;2023-12-28T11:24:29;99589.19;;;15.39;51.98
9893;BME280;4985;49.092;8.542;2023-12-28T11:26:56;99594.50;;;15.39;51.74
9893;BME280;4985;49.092;8.542;2023-12-28T11:29:22;99584.06;;;15.37;52.05
9893;BME280;4985;49.092;8.542;2023-12-28T11:31:58;99573.66;;;15.36;52.04
9893;BME280;4985;49.092;8.542;2023-12-28T11:34:31;99579.97;;;15.35;51.98
9893;BME280;4985;49.092;8.542;2023-12-28T11:36:58;99565.06;;;15.34;52.08
9893;BME280;4985;49.092;8.542;2023-12-28T11:39:30;99562.22;;;15.35;51.94
9893;BME280;4985;49.092;8.542;2023-12-28T11:42:02;99574.66;;;15.35;52.16
9893;BME280;4985;49.092;8.542;2023-12-28T11:44:29;99574.66;;;15.35;52.04
9893;BME280;4985;49.092;8.542;2023-12-28T11:46:55;99563.25;;;15.34;52.00
9893;BME280;4985;49.092;8.542;2023-12-28T11:49:25;99561.41;;;15.35;52.15
9893;BME280;4985;49.092;8.542;2023-12-28T11:51:56;99565.06;;;15.34;52.29
9893;BME280;4985;49.092;8.542;2023-12-28T11:54:22;99568.34;;;15.36;52.38
9893;BME280;4985;49.092;8.542;2023-12-28T11:56:47;99562.22;;;15.35;52.09
9893;BME280;4985;49.092;8.542;2023-12-28T11:59:13;99553.25;;;15.36;52.30
9893;BME280;4985;49.092;8.542;2023-12-28T12:01:38;99542.66;;;15.36;52.16
9893;BME280;4985;49.092;8.542;2023-12-28T12:04:03;99548.78;;;15.37;52.59
9893;BME280;4985;49.092;8.542;2023-12-28T12:06:29;99545.31;;;15.36;52.49
9893;BME280;4985;49.092;8.542;2023-12-28T12:08:55;99548.78;;;15.37;52.47
9893;BME280;4985;49.092;8.542;2023-12-28T12:11:22;99538.97;;;15.37;52.25
9893;BME280;4985;49.092;8.542;2023-12-28T12:13:50;99531.03;;;15.37;52.25
9893;BME280;4985;49.092;8.542;2023-12-28T12:16:16;99534.50;;;15.38;52.40
9893;BME280;4985;49.092;8.542;2023-12-28T12:18:42;99548.38;;;15.40;52.22
9893;BME280;4985;49.092;8.542;2023-12-28T12:21:07;99541.44;;;15.39;52.03
9893;BME280;4985;49.092;8.542;2023-12-28T12:23:33;99549.25;;;15.40;52.14
9893;BME280;4985;49.092;8.542;2023-12-28T12:25:58;99538.63;;;15.40;51.99
9893;BME280;4985;49.092;8.542;2023-12-28T12:28:26;99538.44;;;15.42;51.74
9893;BME280;4985;49.092;8.542;2023-12-28T12:30:54;99532.13;;;15.43;51.89
9893;BME280;4985;49.092;8.542;2023-12-28T12:33:21;99537.44;;;15.43;52.06
9893;BME280;4985;49.092;8.542;2023-12-28T12:35:47;99530.47;;;15.42;52.18
9893;BME280;4985;49.092;8.542;2023-12-28T12:38:12;99526.00;;;15.42;51.82
9893;BME280;4985;49.092;8.542;2023-12-28T12:40:38;99541.09;;;15.42;51.90
9893;BME280;4985;49.092;8.542;2023-12-28T12:43:05;99535.97;;;15.40;51.83
9893;BME280;4985;49.092;8.542;2023-12-28T12:45:34;99537.78;;;15.40;52.01
9893;BME280;4985;49.092;8.542;2023-12-28T12:48:00;99546.41;;;15.42;52.35
9893;BME280;4985;49.092;8.542;2023-12-28T12:50:25;99539.44;;;15.41;52.28
9893;BME280;4985;49.092;8.542;2023-12-28T12:52:51;99533.31;;;15.40;52.28
9893;BME280;4985;49.092;8.542;2023-12-28T12:55:16;99530.66;;;15.40;52.47
9893;BME280;4985;49.092;8.542;2023-12-28T12:57:41;99521.88;;;15.40;52.52
9893;BME280;4985;49.092;8.542;2023-12-28T13:00:09;99529.81;;;15.40;52.49
9893;BME280;4985;49.092;8.542;2023-12-28T13:02:35;99530.84;;;15.39;52.48
9893;BME280;4985;49.092;8.542;2023-12-28T13:05:04;99541.44;;;15.39;52.76
9893;BME280;4985;49.092;8.542;2023-12-28T13:07:31;99539.63;;;15.39;52.36
9893;BME280;4985;49.092;8.542;2023-12-28T13:09:57;99543.94;;;15.40;52.65
9893;BME280;4985;49.092;8.542;2023-12-28T13:12:22;99536.13;;;15.39;52.31
9893;BME280;4985;49.092;8.542;2023-12-28T13:14:48;99529.66;;;15.41;52.47
9893;BME280;4985;49.092;8.542;2023-12-28T13:17:13;99518.22;;;15.41;52.56
9893;BME280;4985;49.092;8.542;2023-12-28T13:19:38;99519.88;;;15.42;52.56
9893;BME280;4985;49.092;8.542;2023-12-28T13:22:04;99529.66;;;15.41;52.47
9893;BME280;4985;49.092;8.542;2023-12-28T13:24:30;99525.19;;;15.42;52.54
9893;BME280;4985;49.092;8.542;2023-12-28T13:26:55;99527.81;;;15.42;52.52